Time;durP1;ratioP1;P1;durP2;ratioP2;P2;SDS_P1;SDS_P2;PMS_P1;PMS_P2;Temp;Humidity;BMP_temperature;BMP_pressure;BME280_temperature;BME280_humidity;BME280_pressure;Samples;Min_cycle;Max_cycle;Signal;HPM_P1;HPM_P2
2021/07/09 00:02:34;;;;;;;4.93;1.80;;;24.60;96.70;;;;;;4924770;29;20094;-73
2021/07/09 00:05:02;;;;;;;9.38;2.35;;;24.60;96.70;;;;;;4925358;29;20099;-73
2021/07/09 00:07:30;;;;;;;4.38;1.60;;;24.50;96.70;;;;;;4923767;29;20091;-72
2021/07/09 00:09:59;;;;;;;5.07;1.42;;;24.40;96.70;;;;;;4908037;29;20055;-73
2021/07/09 00:12:27;;;;;;;5.72;2.13;;;24.40;96.70;;;;;;4906552;29;20074;-72
2021/07/09 00:14:57;;;;;;;3.88;1.60;;;24.30;96.70;;;;;;4908799;29;20060;-73
2021/07/09 00:17:26;;;;;;;7.47;2.10;;;24.20;96.70;;;;;;4924827;29;20051;-73
2021/07/09 00:19:54;;;;;;;6.85;2.00;;;24.20;96.70;;;;;;4922272;29;20044;-73
2021/07/09 00:22:22;;;;;;;6.88;1.92;;;24.00;96.70;;;;;;4908036;29;20083;-73
2021/07/09 00:24:51;;;;;;;4.32;1.73;;;23.90;96.70;;;;;;4908154;29;20044;-73
2021/07/09 00:27:19;;;;;;;8.30;1.98;;;23.80;96.70;;;;;;4923372;29;20051;-72
2021/07/09 00:29:48;;;;;;;5.55;1.85;;;23.80;96.70;;;;;;4909335;29;20052;-73
2021/07/09 00:32:18;;;;;;;6.82;1.90;;;23.70;96.70;;;;;;4909527;29;20051;-73
2021/07/09 00:34:46;;;;;;;9.60;2.20;;;23.80;96.70;;;;;;4922930;29;20043;-73
2021/07/09 00:37:14;;;;;;;8.90;2.00;;;23.70;96.70;;;;;;4925334;29;20043;-72
2021/07/09 00:39:42;;;;;;;6.90;2.03;;;23.70;96.70;;;;;;4927424;29;20501;-73
2021/07/09 00:42:11;;;;;;;6.13;2.25;;;23.70;96.70;;;;;;4925450;29;20120;-73
2021/07/09 00:44:39;;;;;;;9.60;2.33;;;23.80;96.70;;;;;;4924190;29;20063;-73
2021/07/09 00:47:09;;;;;;;8.15;2.10;;;23.70;96.70;;;;;;4924464;29;20075;-73
2021/07/09 00:49:39;;;;;;;7.38;2.13;;;23.70;96.70;;;;;;4890319;29;20902;-73
2021/07/09 00:52:07;;;;;;;6.78;2.22;;;23.70;96.70;;;;;;4924086;29;20051;-73
2021/07/09 00:54:36;;;;;;;8.27;1.70;;;23.90;96.70;;;;;;4922470;29;20047;-75
2021/07/09 00:57:07;;;;;;;7.68;1.85;;;24.10;96.70;;;;;;4907129;29;20143;-73
2021/07/09 00:59:36;;;;;;;7.32;1.70;;;24.30;96.70;;;;;;4910243;29;20051;-73
2021/07/09 01:02:04;;;;;;;6.32;1.73;;;24.50;96.70;;;;;;4909745;29;20572;-73
2021/07/09 01:04:33;;;;;;;5.28;1.70;;;24.60;96.70;;;;;;4906163;29;20040;-73
2021/07/09 01:07:03;;;;;;;5.15;1.90;;;24.70;96.70;;;;;;4922562;29;20126;-72
2021/07/09 01:09:31;;;;;;;6.72;1.55;;;24.70;96.70;;;;;;4907444;29;20057;-73
2021/07/09 01:12:01;;;;;;;10.40;2.50;;;24.80;96.70;;;;;;4910355;29;20490;-73
2021/07/09 01:14:30;;;;;;;8.43;2.55;;;24.70;96.70;;;;;;4903080;29;20060;-72
2021/07/09 01:16:58;;;;;;;6.47;1.80;;;24.70;96.70;;;;;;4907080;29;20039;-73
2021/07/09 01:19:27;;;;;;;5.65;2.00;;;24.70;96.70;;;;;;4903065;29;20044;-73
2021/07/09 01:21:55;;;;;;;6.45;1.90;;;24.70;96.70;;;;;;4904192;29;20581;-73
2021/07/09 01:24:25;;;;;;;6.00;1.65;;;24.70;96.70;;;;;;4905916;29;20112;-73
2021/07/09 01:26:53;;;;;;;7.85;1.92;;;24.60;96.70;;;;;;4902839;29;20040;-73
2021/07/09 01:29:22;;;;;;;7.20;1.92;;;24.60;96.70;;;;;;4916418;29;20139;-73
2021/07/09 01:31:51;;;;;;;7.75;1.77;;;24.60;96.70;;;;;;4924761;29;20047;-73
2021/07/09 01:34:20;;;;;;;6.68;1.88;;;24.60;96.70;;;;;;4905335;29;20055;-73
2021/07/09 01:36:48;;;;;;;5.18;1.67;;;24.50;96.70;;;;;;4904606;29;20056;-73
2021/07/09 01:39:17;;;;;;;6.10;1.65;;;24.50;96.70;;;;;;4904159;29;20044;-73
2021/07/09 01:41:48;;;;;;;5.65;2.00;;;24.60;96.70;;;;;;4903327;29;20040;-73
2021/07/09 01:44:16;;;;;;;6.00;1.70;;;24.60;96.70;;;;;;4905071;29;20476;-73
2021/07/09 01:46:44;;;;;;;5.90;2.10;;;24.50;96.70;;;;;;4904462;29;20528;-73
2021/07/09 01:49:13;;;;;;;5.22;1.70;;;24.50;96.70;;;;;;4904143;29;20103;-73
2021/07/09 01:51:41;;;;;;;6.72;1.52;;;24.50;96.70;;;;;;4916710;29;20143;-73
2021/07/09 01:54:09;;;;;;;5.13;1.30;;;24.40;96.70;;;;;;4905053;29;20035;-73
2021/07/09 01:56:37;;;;;;;5.03;1.63;;;24.30;96.70;;;;;;4909253;29;20071;-73
2021/07/09 01:59:07;;;;;;;7.20;1.70;;;24.30;96.70;;;;;;4905961;29;20575;-73
2021/07/09 02:01:35;;;;;;;6.18;1.40;;;24.30;96.70;;;;;;4908777;29;20179;-73
2021/07/09 02:04:04;;;;;;;4.28;1.35;;;24.20;96.70;;;;;;4910219;29;20118;-73
2021/07/09 02:06:32;;;;;;;5.15;1.77;;;24.20;96.70;;;;;;4909277;29;20036;-73
2021/07/09 02:09:01;;;;;;;5.78;1.42;;;24.30;96.70;;;;;;4910937;29;20058;-74
2021/07/09 02:11:29;;;;;;;6.90;1.50;;;24.30;96.70;;;;;;4908341;29;20039;-74
2021/07/09 02:13:57;;;;;;;5.35;1.75;;;24.30;96.70;;;;;;4910362;29;20046;-74
2021/07/09 02:16:27;;;;;;;6.35;1.83;;;24.30;96.70;;;;;;4927165;29;20586;-74
2021/07/09 02:18:55;;;;;;;4.78;1.67;;;23.90;96.70;;;;;;4927024;29;20074;-74
2021/07/09 02:21:23;;;;;;;8.70;1.65;;;24.10;96.70;;;;;;4909433;29;20047;-74
2021/07/09 02:23:52;;;;;;;7.85;1.55;;;24.20;96.70;;;;;;4928341;29;20059;-74
2021/07/09 02:26:20;;;;;;;4.95;1.30;;;24.20;96.70;;;;;;4927580;29;20761;-74
2021/07/09 02:28:48;;;;;;;6.68;1.88;;;24.00;96.70;;;;;;4913010;29;20047;-75
2021/07/09 02:31:16;;;;;;;9.60;2.70;;;23.80;96.70;;;;;;4911082;29;20495;-74
2021/07/09 02:33:46;;;;;;;5.63;1.90;;;23.60;96.70;;;;;;4927523;29;20066;-74
2021/07/09 02:36:15;;;;;;;9.02;2.10;;;23.60;96.70;;;;;;4910225;29;20379;-74
2021/07/09 02:38:43;;;;;;;3.00;1.40;;;23.50;96.70;;;;;;4924862;29;20138;-74
2021/07/09 02:41:11;;;;;;;12.40;2.15;;;23.60;96.70;;;;;;4908478;29;20478;-74
2021/07/09 02:43:39;;;;;;;6.47;1.67;;;23.80;96.70;;;;;;4914166;29;20043;-74
2021/07/09 02:46:07;;;;;;;9.18;1.60;;;24.00;96.70;;;;;;4925828;29;20071;-74
2021/07/09 02:48:35;;;;;;;5.28;1.55;;;23.90;96.70;;;;;;4926774;29;20135;-74
2021/07/09 02:51:05;;;;;;;7.32;1.67;;;24.00;96.70;;;;;;4925528;29;20050;-74
2021/07/09 02:53:33;;;;;;;5.93;1.80;;;24.00;96.70;;;;;;4927546;29;20134;-74
2021/07/09 02:56:01;;;;;;;4.95;1.67;;;24.00;96.70;;;;;;4926929;29;20423;-74
2021/07/09 02:58:31;;;;;;;5.25;1.40;;;23.90;96.70;;;;;;4924898;29;20035;-74
2021/07/09 03:00:59;;;;;;;4.15;1.58;;;23.70;96.70;;;;;;4919997;29;20102;-74
2021/07/09 03:03:28;;;;;;;7.13;1.73;;;23.80;96.70;;;;;;4926228;29;20121;-75
2021/07/09 03:05:56;;;;;;;6.18;1.73;;;23.90;96.70;;;;;;4924546;29;20044;-74
2021/07/09 03:08:25;;;;;;;7.43;1.50;;;24.00;96.70;;;;;;4928981;28;20042;-74
2021/07/09 03:10:54;;;;;;;4.43;1.60;;;24.10;96.70;;;;;;4910637;29;20054;-75
2021/07/09 03:13:22;;;;;;;6.32;1.52;;;24.10;96.70;;;;;;4924566;29;20055;-74
2021/07/09 03:15:50;;;;;;;5.63;1.73;;;24.20;96.70;;;;;;4927327;29;20083;-74
2021/07/09 03:18:18;;;;;;;6.43;1.70;;;24.10;96.70;;;;;;4925131;29;20409;-74
2021/07/09 03:20:47;;;;;;;7.53;1.70;;;24.00;96.70;;;;;;4906845;29;20046;-75
2021/07/09 03:23:15;;;;;;;5.50;1.42;;;24.00;96.70;;;;;;4924635;29;20067;-74
2021/07/09 03:25:45;;;;;;;10.10;2.05;;;23.80;96.70;;;;;;4909934;29;20043;-74
2021/07/09 03:28:13;;;;;;;5.10;1.63;;;23.90;96.70;;;;;;4912112;29;20059;-74
2021/07/09 03:30:42;;;;;;;6.00;1.55;;;24.00;96.70;;;;;;4926188;29;20482;-74
2021/07/09 03:33:11;;;;;;;5.30;2.05;;;24.10;96.70;;;;;;4910054;29;20039;-74
2021/07/09 03:35:39;;;;;;;8.10;1.88;;;24.00;96.70;;;;;;4930372;29;20039;-73
2021/07/09 03:38:07;;;;;;;5.35;1.80;;;23.80;96.70;;;;;;4922093;29;20059;-74
2021/07/09 03:40:36;;;;;;;4.38;1.55;;;23.80;96.70;;;;;;4909358;29;20540;-74
2021/07/09 03:43:06;;;;;;;4.88;1.90;;;23.70;96.70;;;;;;4925241;29;20423;-74
2021/07/09 03:45:34;;;;;;;4.45;1.58;;;23.80;96.70;;;;;;4925223;29;20072;-74
2021/07/09 03:48:02;;;;;;;6.72;1.92;;;23.90;96.70;;;;;;4927885;29;20535;-74
2021/07/09 03:50:31;;;;;;;6.07;2.00;;;23.80;96.70;;;;;;4909764;29;20461;-74
2021/07/09 03:53:05;;;;;;;7.63;1.70;;;23.70;96.70;;;;;;4911816;29;20394;-74
2021/07/09 03:55:33;;;;;;;4.03;1.50;;;23.70;96.70;;;;;;4920839;29;20130;-74
2021/07/09 03:58:02;;;;;;;5.43;1.70;;;23.80;96.70;;;;;;4924553;29;20398;-74
2021/07/09 04:00:32;;;;;;;6.03;1.60;;;23.70;96.70;;;;;;4925424;29;20498;-74
2021/07/09 04:03:00;;;;;;;5.72;1.60;;;23.50;96.70;;;;;;4924831;29;20064;-74
2021/07/09 04:05:29;;;;;;;7.97;1.70;;;23.40;96.70;;;;;;4908971;29;20043;-74
2021/07/09 04:07:57;;;;;;;6.15;1.98;;;23.30;96.70;;;;;;4907749;29;20043;-74
2021/07/09 04:10:26;;;;;;;5.05;1.52;;;23.30;96.70;;;;;;4927037;29;20047;-74
2021/07/09 04:12:55;;;;;;;4.72;1.70;;;23.40;96.70;;;;;;4921307;29;20067;-74
2021/07/09 04:15:23;;;;;;;6.97;1.60;;;23.60;96.70;;;;;;4907212;29;20064;-74
2021/07/09 04:17:53;;;;;;;5.13;1.60;;;23.70;96.70;;;;;;4923959;29;20048;-74
2021/07/09 04:20:21;;;;;;;9.55;1.92;;;23.70;96.70;;;;;;4925637;29;20078;-74
2021/07/09 04:22:49;;;;;;;7.18;1.85;;;23.60;96.70;;;;;;4908779;29;20135;-74
2021/07/09 04:25:18;;;;;;;8.07;2.38;;;23.50;96.70;;;;;;4922083;29;20200;-74
2021/07/09 04:27:46;;;;;;;7.05;2.13;;;23.60;96.70;;;;;;4908308;29;20048;-75
2021/07/09 04:30:15;;;;;;;8.88;1.73;;;23.60;96.70;;;;;;4922089;29;20067;-74
2021/07/09 04:32:43;;;;;;;10.55;2.13;;;23.70;96.70;;;;;;4911615;29;20032;-74
2021/07/09 04:35:14;;;;;;;6.68;1.73;;;23.80;96.70;;;;;;4923186;29;20402;-74
2021/07/09 04:37:42;;;;;;;11.07;2.63;;;23.60;96.70;;;;;;4920928;29;20048;-74
2021/07/09 04:40:11;;;;;;;5.35;1.77;;;23.20;96.70;;;;;;4906824;29;20569;-75
2021/07/09 04:42:39;;;;;;;6.50;2.00;;;23.10;96.70;;;;;;4925982;29;20052;-74
2021/07/09 04:45:13;;;;;;;5.30;1.77;;;23.40;96.70;;;;;;4922460;29;20721;-74
2021/07/09 04:47:42;;;;;;;6.53;1.65;;;23.70;96.70;;;;;;4924569;28;20087;-75
2021/07/09 04:50:13;;;;;;;5.78;1.73;;;23.80;96.70;;;;;;4902209;29;20051;-75
2021/07/09 04:52:44;;;;;;;5.80;1.88;;;23.70;96.70;;;;;;4923292;29;20106;-75
2021/07/09 04:55:13;;;;;;;5.95;1.90;;;23.60;96.70;;;;;;4921251;29;20046;-74
2021/07/09 04:57:42;;;;;;;4.82;1.85;;;23.50;96.70;;;;;;4923166;29;20059;-75
2021/07/09 05:00:11;;;;;;;4.50;1.73;;;23.60;96.70;;;;;;4906804;29;20836;-74
2021/07/09 05:02:39;;;;;;;5.38;1.83;;;23.60;96.70;;;;;;4907215;29;20043;-74
2021/07/09 05:05:13;;;;;;;6.85;1.63;;;23.70;96.70;;;;;;4906293;29;20111;-75
2021/07/09 05:07:46;;;;;;;8.20;2.42;;;23.70;96.70;;;;;;4923035;29;20039;-75
2021/07/09 05:10:14;;;;;;;8.05;1.95;;;23.70;96.70;;;;;;4920260;29;20141;-74
2021/07/09 05:12:43;;;;;;;5.82;1.77;;;23.60;96.70;;;;;;4922950;29;20091;-75
2021/07/09 05:15:12;;;;;;;6.65;1.85;;;23.60;96.70;;;;;;4918486;29;20058;-75
2021/07/09 05:17:40;;;;;;;9.65;2.15;;;23.90;96.70;;;;;;4905972;29;20051;-75
2021/07/09 05:20:10;;;;;;;6.53;1.95;;;23.90;96.70;;;;;;4904393;29;20443;-74
2021/07/09 05:22:40;;;;;;;6.50;2.08;;;24.00;96.70;;;;;;4904446;29;20309;-74
2021/07/09 05:25:09;;;;;;;7.95;2.17;;;23.90;96.70;;;;;;4904618;29;20059;-74
2021/07/09 05:27:38;;;;;;;12.02;2.63;;;23.80;96.70;;;;;;4904816;29;20510;-75
2021/07/09 05:30:07;;;;;;;8.05;2.40;;;23.90;96.70;;;;;;4904221;29;20051;-75
2021/07/09 05:32:38;;;;;;;11.93;3.20;;;23.90;96.70;;;;;;4903963;29;20051;-75
2021/07/09 05:35:07;;;;;;;11.10;3.00;;;23.80;96.70;;;;;;4906715;29;20135;-74
2021/07/09 05:37:36;;;;;;;12.15;3.13;;;23.80;96.70;;;;;;4906153;29;20040;-74
2021/07/09 05:40:07;;;;;;;10.23;3.42;;;24.00;96.70;;;;;;4907946;29;20040;-74
2021/07/09 05:42:42;;;;;;;9.35;3.15;;;24.10;96.70;;;;;;4907661;29;20041;-74
2021/07/09 05:45:11;;;;;;;8.43;2.67;;;24.20;96.70;;;;;;4907331;29;20048;-74
2021/07/09 05:47:39;;;;;;;9.63;2.78;;;24.30;96.70;;;;;;4909342;29;20152;-74
2021/07/09 05:50:08;;;;;;;11.75;2.85;;;24.30;96.70;;;;;;4903953;29;20075;-74
2021/07/09 05:52:37;;;;;;;8.55;2.63;;;24.20;96.70;;;;;;4908438;29;20040;-74
2021/07/09 05:55:08;;;;;;;9.02;2.85;;;24.10;96.70;;;;;;4905013;29;20075;-75
2021/07/09 05:57:36;;;;;;;8.05;2.60;;;24.10;96.70;;;;;;4908233;29;20469;-76
2021/07/09 06:00:06;;;;;;;6.88;2.75;;;24.00;96.70;;;;;;4903659;29;20047;-77
2021/07/09 06:02:34;;;;;;;8.95;3.45;;;24.00;96.70;;;;;;4905258;29;20195;-76
2021/07/09 06:05:03;;;;;;;11.93;3.00;;;23.90;96.70;;;;;;4908338;29;20048;-76
2021/07/09 06:07:31;;;;;;;11.43;3.47;;;23.90;96.70;;;;;;4904804;29;20112;-77
2021/07/09 06:10:03;;;;;;;12.10;3.15;;;24.10;96.70;;;;;;4922934;29;20228;-76
2021/07/09 06:12:33;;;;;;;11.68;3.42;;;24.10;96.70;;;;;;4907551;29;20036;-75
2021/07/09 06:15:02;;;;;;;11.32;2.97;;;24.30;96.70;;;;;;4918653;29;20047;-75
2021/07/09 06:17:30;;;;;;;12.93;2.83;;;24.30;96.70;;;;;;4926157;28;20067;-75
2021/07/09 06:19:58;;;;;;;10.60;2.70;;;24.40;96.70;;;;;;4909829;29;20044;-75
2021/07/09 06:22:27;;;;;;;9.25;3.10;;;24.50;96.70;;;;;;4928556;29;20055;-75
2021/07/09 06:24:55;;;;;;;11.10;2.95;;;24.50;96.70;;;;;;4927087;29;20502;-75
2021/07/09 06:27:23;;;;;;;10.48;2.20;;;24.50;96.70;;;;;;4924640;29;20074;-76
2021/07/09 06:29:53;;;;;;;4.95;1.80;;;24.60;96.70;;;;;;4925307;29;20569;-76
2021/07/09 06:32:21;;;;;;;9.10;2.40;;;24.60;96.70;;;;;;4926983;29;20036;-76
2021/07/09 06:34:49;;;;;;;11.23;2.50;;;24.70;96.70;;;;;;4912605;29;20525;-75
2021/07/09 06:37:17;;;;;;;6.97;2.22;;;24.70;96.70;;;;;;4921175;29;20039;-75
2021/07/09 06:39:46;;;;;;;12.27;2.40;;;24.80;96.70;;;;;;4912393;29;20484;-75
2021/07/09 06:42:14;;;;;;;7.35;2.28;;;24.80;96.70;;;;;;4927011;29;20434;-75
2021/07/09 06:44:43;;;;;;;10.30;2.20;;;24.70;96.70;;;;;;4924138;29;20586;-75
2021/07/09 06:47:13;;;;;;;8.48;2.30;;;24.80;96.70;;;;;;4924097;29;20059;-75
2021/07/09 06:49:41;;;;;;;7.60;2.10;;;24.90;96.70;;;;;;4910021;29;20044;-75
2021/07/09 06:52:09;;;;;;;8.15;2.40;;;25.00;96.70;;;;;;4925818;29;20048;-75
2021/07/09 06:54:38;;;;;;;7.65;2.17;;;25.00;96.70;;;;;;4926891;29;20127;-75
2021/07/09 06:57:06;;;;;;;12.10;2.67;;;24.90;96.70;;;;;;4927544;29;20054;-75
2021/07/09 06:59:34;;;;;;;12.15;2.45;;;24.90;96.70;;;;;;4910415;29;20035;-75
2021/07/09 07:02:03;;;;;;;11.13;2.60;;;24.90;96.70;;;;;;4922751;29;20040;-75
2021/07/09 07:04:33;;;;;;;8.82;2.42;;;25.00;96.70;;;;;;4923731;29;20035;-75
2021/07/09 07:07:01;;;;;;;10.57;2.65;;;25.00;96.70;;;;;;4911096;29;20538;-75
2021/07/09 07:09:32;;;;;;;11.48;2.58;;;25.10;96.70;;;;;;4926353;29;20094;-75
2021/07/09 07:12:04;;;;;;;6.43;1.85;;;25.10;96.70;;;;;;4911026;29;20051;-75
2021/07/09 07:14:33;;;;;;;9.25;2.40;;;25.20;96.70;;;;;;4924810;29;20060;-75
2021/07/09 07:17:02;;;;;;;11.18;2.42;;;25.30;96.70;;;;;;4910263;29;20040;-75
2021/07/09 07:19:32;;;;;;;10.57;1.88;;;25.30;96.70;;;;;;4923253;29;20139;-75
2021/07/09 07:22:02;;;;;;;8.40;1.50;;;25.30;96.70;;;;;;4924259;29;20040;-75
2021/07/09 07:24:30;;;;;;;9.20;1.92;;;25.40;96.70;;;;;;4925709;29;20480;-75
2021/07/09 07:26:59;;;;;;;6.25;1.80;;;25.40;96.70;;;;;;4927297;29;20035;-75
2021/07/09 07:29:27;;;;;;;5.55;1.63;;;25.40;96.70;;;;;;4909462;29;20051;-75
2021/07/09 07:31:56;;;;;;;9.27;2.17;;;25.50;96.70;;;;;;4926025;29;20392;-75
2021/07/09 07:34:25;;;;;;;5.40;1.92;;;25.50;96.70;;;;;;4908771;29;20054;-75
2021/07/09 07:36:54;;;;;;;8.30;1.95;;;25.50;96.70;;;;;;4925661;29;20048;-75
2021/07/09 07:39:23;;;;;;;8.63;2.35;;;25.60;96.70;;;;;;4909220;29;20043;-75
2021/07/09 07:41:52;;;;;;;5.65;1.40;;;25.60;96.70;;;;;;4909940;29;20486;-75
2021/07/09 07:44:21;;;;;;;5.95;1.33;;;25.60;96.70;;;;;;4923139;29;20103;-75
2021/07/09 07:46:50;;;;;;;8.30;1.88;;;25.70;96.70;;;;;;4908385;29;20052;-75
2021/07/09 07:49:19;;;;;;;7.78;2.03;;;25.80;96.70;;;;;;4926099;29;20552;-75
2021/07/09 07:51:50;;;;;;;3.78;1.38;;;25.80;96.70;;;;;;4922237;29;20059;-75
2021/07/09 07:54:19;;;;;;;7.05;1.38;;;25.90;96.60;;;;;;4909228;29;20051;-75
2021/07/09 07:56:48;;;;;;;6.22;1.48;;;25.90;95.70;;;;;;4920541;29;20454;-75
2021/07/09 07:59:16;;;;;;;5.43;1.20;;;26.00;95.20;;;;;;4909097;29;20132;-75
2021/07/09 08:01:45;;;;;;;6.68;1.27;;;26.00;95.30;;;;;;4911717;29;20155;-76
2021/07/09 08:04:14;;;;;;;5.32;1.27;;;26.10;93.40;;;;;;4911691;29;20122;-75
2021/07/09 08:06:42;;;;;;;3.83;1.17;;;26.10;92.70;;;;;;4892727;29;20062;-75
2021/07/09 08:09:10;;;;;;;6.97;1.20;;;26.20;93.60;;;;;;4922538;29;20441;-75
2021/07/09 08:11:40;;;;;;;8.98;1.98;;;26.20;94.10;;;;;;4923692;29;20126;-75
2021/07/09 08:14:08;;;;;;;3.65;1.20;;;26.30;92.90;;;;;;4905909;29;20063;-75
2021/07/09 08:16:37;;;;;;;5.10;1.42;;;26.30;93.30;;;;;;4903326;29;20040;-75
2021/07/09 08:19:05;;;;;;;5.05;1.17;;;26.30;92.10;;;;;;4904370;29;20059;-75
2021/07/09 08:21:33;;;;;;;1.52;0.93;;;26.40;91.00;;;;;;4905268;29;20032;-75
2021/07/09 08:24:02;;;;;;;2.00;0.55;;;26.40;88.60;;;;;;4905692;29;20039;-75
2021/07/09 08:26:30;;;;;;;2.17;0.70;;;26.50;83.60;;;;;;4905190;29;20058;-75
2021/07/09 08:29:00;;;;;;;4.82;0.80;;;26.50;83.00;;;;;;4906545;29;20048;-75
2021/07/09 08:31:48;;;;;;;1.50;0.90;;;26.60;83.30;;;;;;4902131;29;20395;-75
2021/07/09 08:34:16;;;;;;;5.20;0.75;;;26.70;83.50;;;;;;4920721;29;20103;-75
2021/07/09 08:36:45;;;;;;;2.40;0.63;;;26.80;83.10;;;;;;4901133;29;20056;-75
2021/07/09 08:39:15;;;;;;;1.40;0.70;;;26.80;82.00;;;;;;4904535;29;20040;-75
2021/07/09 08:41:46;;;;;;;1.98;0.60;;;26.80;81.80;;;;;;4904764;29;20419;-75
2021/07/09 08:44:16;;;;;;;3.20;0.70;;;26.80;80.90;;;;;;4902795;29;20039;-75
2021/07/09 08:46:45;;;;;;;2.60;0.95;;;26.80;81.20;;;;;;4904563;29;20047;-75
2021/07/09 08:49:15;;;;;;;1.08;0.43;;;26.90;80.80;;;;;;4904356;29;20510;-75
2021/07/09 08:51:45;;;;;;;1.92;0.60;;;26.90;80.00;;;;;;4904927;29;20163;-75
2021/07/09 08:54:13;;;;;;;6.57;0.90;;;27.00;81.30;;;;;;4905068;29;20420;-75
2021/07/09 08:56:42;;;;;;;2.13;0.60;;;27.00;79.50;;;;;;4906689;29;20395;-75
2021/07/09 08:59:11;;;;;;;1.98;0.60;;;27.10;80.60;;;;;;4908117;29;20044;-75
2021/07/09 09:01:52;;;;;;;3.42;0.50;;;27.20;80.20;;;;;;4906829;29;20044;-76
2021/07/09 09:04:28;;;;;;;1.25;0.60;;;27.20;80.10;;;;;;4905081;29;20139;-75
2021/07/09 09:06:58;;;;;;;3.60;0.80;;;27.30;80.90;;;;;;4905469;29;20043;-75
2021/07/09 09:09:27;;;;;;;1.33;0.70;;;27.20;82.40;;;;;;4906626;29;20342;-75
2021/07/09 09:12:08;;;;;;;2.72;0.65;;;27.30;81.50;;;;;;4893685;29;20406;-75
2021/07/09 09:14:38;;;;;;;3.83;0.80;;;27.30;81.50;;;;;;4911945;29;20138;-75
2021/07/09 09:17:28;;;;;;;2.53;0.70;;;27.30;82.00;;;;;;4928850;29;20036;-75
2021/07/09 09:20:11;;;;;;;5.28;0.90;;;27.30;81.90;;;;;;4925639;29;20047;-74
2021/07/09 09:22:56;;;;;;;3.42;0.70;;;27.40;82.20;;;;;;4926263;29;20063;-75
2021/07/09 09:25:26;;;;;;;3.08;1.05;;;27.40;81.60;;;;;;4924805;29;20047;-75
2021/07/09 09:28:04;;;;;;;2.35;0.70;;;27.50;81.00;;;;;;4927415;29;20110;-75
2021/07/09 09:30:33;;;;;;;3.08;0.60;;;27.60;81.30;;;;;;4925184;29;20106;-74
2021/07/09 09:33:05;;;;;;;2.70;0.65;;;27.60;81.80;;;;;;4927247;29;20638;-75
2021/07/09 09:35:37;;;;;;;3.75;0.88;;;27.60;80.80;;;;;;4924642;29;20048;-75
2021/07/09 09:38:07;;;;;;;5.25;1.05;;;27.50;81.40;;;;;;4911178;29;20062;-75
2021/07/09 09:40:38;;;;;;;3.10;0.90;;;27.60;81.70;;;;;;4927963;29;20047;-75
2021/07/09 09:43:08;;;;;;;2.90;0.73;;;27.80;81.40;;;;;;4905832;29;20465;-74
2021/07/09 09:45:37;;;;;;;1.95;0.75;;;27.80;80.10;;;;;;4932692;29;20050;-74
2021/07/09 09:48:09;;;;;;;2.72;0.60;;;27.80;80.70;;;;;;4929816;29;20051;-74
2021/07/09 09:50:45;;;;;;;1.35;0.45;;;28.00;77.90;;;;;;4929302;29;20055;-75
2021/07/09 09:53:14;;;;;;;2.17;0.60;;;28.00;76.50;;;;;;4913325;29;20043;-74
2021/07/09 09:55:43;;;;;;;1.80;0.70;;;28.00;78.90;;;;;;4927955;29;20040;-76
2021/07/09 09:58:13;;;;;;;5.43;0.80;;;28.00;80.30;;;;;;4931072;29;20114;-76
2021/07/09 10:00:44;;;;;;;2.20;0.65;;;28.00;79.90;;;;;;4911130;29;20119;-76
2021/07/09 10:03:21;;;;;;;2.20;0.63;;;28.00;79.10;;;;;;4925255;29;20048;-76
2021/07/09 10:05:51;;;;;;;1.13;0.30;;;28.20;79.30;;;;;;4924760;29;20043;-76
2021/07/09 10:08:21;;;;;;;3.63;0.40;;;28.10;72.50;;;;;;4928019;29;20369;-76
2021/07/09 10:10:50;;;;;;;2.40;0.68;;;28.10;72.80;;;;;;4925929;29;20142;-75
2021/07/09 10:13:19;;;;;;;1.55;0.30;;;28.20;74.30;;;;;;4928276;29;20047;-76
2021/07/09 10:15:51;;;;;;;2.25;0.30;;;28.30;72.90;;;;;;4906663;29;20070;-75
2021/07/09 10:18:22;;;;;;;2.33;0.60;;;28.30;72.60;;;;;;4906804;29;20375;-75
2021/07/09 10:20:51;;;;;;;1.00;0.50;;;28.40;73.50;;;;;;4904834;29;20447;-75
2021/07/09 10:23:21;;;;;;;4.30;0.77;;;28.50;73.80;;;;;;4906209;29;20047;-74
2021/07/09 10:25:51;;;;;;;3.15;0.50;;;28.50;73.00;;;;;;4905020;29;20426;-75
2021/07/09 10:28:22;;;;;;;2.25;0.75;;;28.60;73.30;;;;;;4903786;29;20434;-74
2021/07/09 10:30:53;;;;;;;1.80;0.80;;;28.60;73.70;;;;;;4906189;29;20063;-74
2021/07/09 10:33:34;;;;;;;2.70;0.40;;;28.60;73.50;;;;;;4907013;29;20176;-74
2021/07/09 10:36:06;;;;;;;0.75;0.40;;;28.90;72.70;;;;;;4905601;29;20055;-75
2021/07/09 10:38:39;;;;;;;1.25;0.40;;;28.90;72.50;;;;;;4906550;29;20043;-75
2021/07/09 10:41:13;;;;;;;3.08;0.45;;;28.80;72.60;;;;;;4904204;29;20052;-74
2021/07/09 10:43:41;;;;;;;0.60;0.35;;;28.80;73.00;;;;;;4906638;29;20036;-75
2021/07/09 10:46:09;;;;;;;1.67;0.50;;;28.90;73.10;;;;;;4904673;29;20044;-76
2021/07/09 10:48:39;;;;;;;2.25;0.60;;;29.00;74.70;;;;;;4908574;29;20052;-75
2021/07/09 10:51:11;;;;;;;1.02;0.50;;;29.00;75.50;;;;;;4906712;29;20055;-75
2021/07/09 10:53:40;;;;;;;2.38;0.57;;;29.10;71.60;;;;;;4905906;29;20044;-75
2021/07/09 10:56:12;;;;;;;1.33;0.45;;;29.10;74.40;;;;;;4920897;29;20044;-75
2021/07/09 10:58:43;;;;;;;2.78;0.60;;;29.20;73.50;;;;;;4890700;29;20524;-75
2021/07/09 11:01:21;;;;;;;2.65;0.40;;;29.20;72.90;;;;;;4906142;29;20130;-75
2021/07/09 11:04:08;;;;;;;1.92;0.43;;;29.20;72.40;;;;;;4908086;29;20077;-75
2021/07/09 11:06:43;;;;;;;2.05;0.70;;;29.20;69.90;;;;;;4904656;29;20037;-75
2021/07/09 11:09:16;;;;;;;2.33;0.50;;;29.30;72.90;;;;;;4907013;29;20458;-75
2021/07/09 11:11:51;;;;;;;1.75;0.40;;;29.30;73.60;;;;;;4924874;29;20143;-74
2021/07/09 11:14:33;;;;;;;1.40;0.40;;;29.40;71.90;;;;;;4910053;29;20063;-75
2021/07/09 11:17:14;;;;;;;3.25;0.60;;;29.40;70.00;;;;;;4911483;29;20142;-74
2021/07/09 11:19:50;;;;;;;1.48;0.57;;;29.50;69.30;;;;;;4923401;29;20142;-75
2021/07/09 11:22:23;;;;;;;2.55;0.50;;;29.50;69.30;;;;;;4926126;29;20189;-75
2021/07/09 11:24:56;;;;;;;3.90;0.52;;;29.40;69.50;;;;;;4926931;29;20565;-75
2021/07/09 11:27:29;;;;;;;1.48;0.30;;;29.50;69.20;;;;;;4910210;29;20494;-75
2021/07/09 11:30:02;;;;;;;1.80;0.35;;;29.50;68.30;;;;;;4923819;29;20055;-74
2021/07/09 11:32:35;;;;;;;3.33;0.40;;;29.50;67.60;;;;;;4908460;29;20051;-75
2021/07/09 11:35:07;;;;;;;2.60;0.40;;;29.50;70.10;;;;;;4925449;29;20044;-75
2021/07/09 11:37:36;;;;;;;0.93;0.32;;;29.80;70.40;;;;;;4921771;29;20087;-75
2021/07/09 11:40:07;;;;;;;1.63;0.50;;;29.80;63.70;;;;;;4925995;29;20212;-75
2021/07/09 11:42:37;;;;;;;1.58;0.50;;;29.90;66.70;;;;;;4925283;29;20048;-75
2021/07/09 11:45:08;;;;;;;2.05;0.40;;;30.00;64.60;;;;;;4906340;29;20913;-75
2021/07/09 11:47:38;;;;;;;2.58;0.60;;;29.90;65.20;;;;;;4925857;29;20549;-75
2021/07/09 11:50:15;;;;;;;1.98;0.70;;;29.90;66.60;;;;;;4913277;29;20553;-75
2021/07/09 11:52:45;;;;;;;3.00;0.80;;;29.90;68.80;;;;;;4923737;29;20039;-75
2021/07/09 11:55:16;;;;;;;3.80;0.77;;;29.80;69.80;;;;;;4925153;29;20449;-75
2021/07/09 11:57:45;;;;;;;2.97;0.50;;;29.80;71.00;;;;;;4906911;29;20043;-75
2021/07/09 12:00:16;;;;;;;1.17;0.40;;;29.80;67.30;;;;;;4925966;29;20043;-75
2021/07/09 12:02:45;;;;;;;2.90;0.43;;;29.80;64.80;;;;;;4924047;29;20044;-75
2021/07/09 12:05:17;;;;;;;3.30;0.40;;;30.10;66.00;;;;;;4925179;29;20552;-75
2021/07/09 12:07:46;;;;;;;1.75;0.70;;;30.20;67.70;;;;;;4906216;29;20130;-75
2021/07/09 12:10:16;;;;;;;3.08;0.90;;;30.20;69.30;;;;;;4929842;29;20458;-75
2021/07/09 12:12:45;;;;;;;2.25;0.47;;;30.30;69.10;;;;;;4924199;29;20051;-75
2021/07/09 12:15:16;;;;;;;4.50;0.40;;;30.20;69.50;;;;;;4925053;29;20087;-75
2021/07/09 12:17:47;;;;;;;1.67;0.60;;;30.30;69.10;;;;;;4920959;29;21012;-75
2021/07/09 12:20:22;;;;;;;7.53;0.55;;;30.40;70.60;;;;;;4925327;29;20043;-75
2021/07/09 12:22:53;;;;;;;3.15;0.70;;;30.40;65.00;;;;;;4920995;29;20058;-75
2021/07/09 12:25:23;;;;;;;2.63;0.90;;;30.20;68.90;;;;;;4909120;29;20047;-75
2021/07/09 12:27:54;;;;;;;2.85;0.80;;;30.20;67.90;;;;;;4924706;29;20130;-75
2021/07/09 12:30:25;;;;;;;3.25;0.93;;;30.10;67.70;;;;;;4922964;29;20498;-75
2021/07/09 12:32:57;;;;;;;2.88;0.90;;;30.20;70.10;;;;;;4926739;29;20048;-75
2021/07/09 12:35:42;;;;;;;3.10;0.60;;;30.20;67.40;;;;;;4925212;29;20055;-75
2021/07/09 12:38:11;;;;;;;1.52;0.40;;;30.30;66.20;;;;;;4924746;29;20095;-75
2021/07/09 12:40:41;;;;;;;2.42;0.52;;;30.20;66.10;;;;;;4908305;29;20043;-75
2021/07/09 12:43:19;;;;;;;1.98;0.50;;;30.30;67.30;;;;;;4907376;29;20044;-75
2021/07/09 12:45:56;;;;;;;1.75;0.50;;;30.20;68.10;;;;;;4924007;29;20132;-75
2021/07/09 12:48:31;;;;;;;1.33;0.38;;;30.20;66.80;;;;;;4907598;29;20045;-75
2021/07/09 12:51:14;;;;;;;2.17;0.55;;;30.20;68.20;;;;;;4924890;29;20166;-75
2021/07/09 12:53:54;;;;;;;3.38;0.50;;;30.30;66.70;;;;;;4920875;29;20047;-75
2021/07/09 12:56:24;;;;;;;3.13;0.80;;;30.20;67.00;;;;;;4919490;29;20119;-75
2021/07/09 12:59:04;;;;;;;3.22;0.55;;;30.20;68.10;;;;;;4919812;29;20051;-75
2021/07/09 13:01:34;;;;;;;1.75;0.30;;;30.30;68.80;;;;;;4922918;29;20079;-74